Time;durP1;ratioP1;P1;durP2;ratioP2;P2;SDS_P1;SDS_P2;PMS_P1;PMS_P2;Temp;Humidity;BMP_temperature;BMP_pressure;BME280_temperature;BME280_humidity;BME280_pressure;Samples;Min_cycle;Max_cycle;Signal;HPM_P1;HPM_P2
2023/04/23 00:02:13;;;;;;;36.65;23.00;;;;;;;;;;4830060;29;20526;-77
2023/04/23 00:04:46;;;;;;;36.20;23.73;;;;;;;;;;4836002;29;20069;-76
2023/04/23 00:07:13;;;;;;;39.78;22.58;;;;;;;;;;4834265;29;20101;-78
2023/04/23 00:09:39;;;;;;;34.97;22.80;;;;;;;;;;4833981;29;20049;-78
2023/04/23 00:12:06;;;;;;;37.55;23.45;;;;;;;;;;4832241;29;20046;-78
2023/04/23 00:14:32;;;;;;;35.80;23.48;;;;;;;;;;4839108;29;20120;-76
2023/04/23 00:16:58;;;;;;;36.08;23.85;;;;;;;;;;4833175;29;20061;-76
2023/04/23 00:19:24;;;;;;;34.47;22.40;;;;;;;;;;4833963;29;20432;-75
2023/04/23 00:21:50;;;;;;;40.25;23.80;;;;;;;;;;4834599;29;20038;-76
2023/04/23 00:24:16;;;;;;;38.88;24.55;;;;;;;;;;4834056;29;20121;-76
2023/04/23 00:26:44;;;;;;;36.88;23.38;;;;;;;;;;4836596;29;20094;-76
2023/04/23 00:29:10;;;;;;;41.40;23.27;;;;;;;;;;4831098;29;20041;-76
2023/04/23 00:31:36;;;;;;;37.55;24.00;;;;;;;;;;4834904;29;20120;-75
2023/04/23 00:34:02;;;;;;;37.13;22.98;;;;;;;;;;4836213;29;20034;-75
2023/04/23 00:36:28;;;;;;;46.38;25.05;;;;;;;;;;4833016;29;20297;-76
2023/04/23 00:38:54;;;;;;;43.17;25.02;;;;;;;;;;4830903;29;20044;-76
2023/04/23 00:41:20;;;;;;;40.90;24.80;;;;;;;;;;4836170;29;20042;-76
2023/04/23 00:43:47;;;;;;;42.97;26.58;;;;;;;;;;4835752;29;20034;-76
2023/04/23 00:46:13;;;;;;;42.35;25.40;;;;;;;;;;4834326;29;20391;-76
2023/04/23 00:48:40;;;;;;;45.58;26.00;;;;;;;;;;4830390;29;20479;-76
2023/04/23 00:51:06;;;;;;;36.10;24.92;;;;;;;;;;4834340;29;20041;-75
2023/04/23 00:53:32;;;;;;;40.55;26.08;;;;;;;;;;4833574;29;20053;-75
2023/04/23 00:56:01;;;;;;;43.15;25.77;;;;;;;;;;4834116;29;20437;-75
2023/04/23 00:58:28;;;;;;;38.70;24.35;;;;;;;;;;4834051;29;20037;-76
2023/04/23 01:00:54;;;;;;;34.90;24.25;;;;;;;;;;4831529;29;20034;-76
2023/04/23 01:03:21;;;;;;;40.83;24.35;;;;;;;;;;4834432;29;20468;-75
2023/04/23 01:05:48;;;;;;;39.95;24.52;;;;;;;;;;4836029;29;20389;-76
2023/04/23 01:08:15;;;;;;;40.33;24.73;;;;;;;;;;4836632;29;20549;-75
2023/04/23 01:10:43;;;;;;;44.17;25.98;;;;;;;;;;4834107;29;20390;-76
2023/04/23 01:13:09;;;;;;;43.45;27.40;;;;;;;;;;4833887;29;20042;-75
2023/04/23 01:15:38;;;;;;;43.92;26.42;;;;;;;;;;4833962;29;20444;-76
2023/04/23 01:18:06;;;;;;;45.58;26.90;;;;;;;;;;4830945;29;20046;-76
2023/04/23 01:20:32;;;;;;;47.42;26.83;;;;;;;;;;4835830;29;20038;-76
2023/04/23 01:22:59;;;;;;;42.92;26.42;;;;;;;;;;4833232;29;20127;-76
2023/04/23 01:25:25;;;;;;;53.80;28.52;;;;;;;;;;4836079;29;20057;-76
2023/04/23 01:27:51;;;;;;;50.00;30.52;;;;;;;;;;4833400;29;20034;-76
2023/04/23 01:30:17;;;;;;;58.33;29.30;;;;;;;;;;4833915;29;20525;-74
2023/04/23 01:32:43;;;;;;;51.38;28.50;;;;;;;;;;4830884;29;20060;-75
2023/04/23 01:35:11;;;;;;;65.50;32.25;;;;;;;;;;4830803;29;20070;-75
2023/04/23 01:37:38;;;;;;;69.47;31.65;;;;;;;;;;4831067;29;20050;-77
2023/04/23 01:40:04;;;;;;;87.18;35.25;;;;;;;;;;4836603;29;20372;-77
2023/04/23 01:42:30;;;;;;;136.15;35.00;;;;;;;;;;4803559;29;20068;-77
2023/04/23 01:44:57;;;;;;;129.50;36.75;;;;;;;;;;4818079;29;20586;-77
2023/04/23 01:47:23;;;;;;;136.60;36.15;;;;;;;;;;4833905;29;20432;-75
2023/04/23 01:49:49;;;;;;;98.25;37.60;;;;;;;;;;4833123;29;20054;-75
2023/04/23 01:52:16;;;;;;;101.90;39.30;;;;;;;;;;4833907;29;20042;-78
2023/04/23 01:54:42;;;;;;;123.55;39.97;;;;;;;;;;4829704;29;20046;-78
2023/04/23 01:57:09;;;;;;;161.25;40.90;;;;;;;;;;4830590;29;20503;-77
2023/04/23 01:59:37;;;;;;;154.68;39.20;;;;;;;;;;4833867;29;20075;-75
2023/04/23 02:02:03;;;;;;;94.47;43.33;;;;;;;;;;4831841;29;20062;-75
2023/04/23 02:04:30;;;;;;;208.20;50.17;;;;;;;;;;4831855;29;20399;-75
2023/04/23 02:06:56;;;;;;;258.90;50.78;;;;;;;;;;4835613;29;20038;-78
2023/04/23 02:09:22;;;;;;;219.07;49.22;;;;;;;;;;4835455;29;20041;-78
2023/04/23 02:11:48;;;;;;;143.93;53.03;;;;;;;;;;4838250;29;20054;-78
2023/04/23 02:14:14;;;;;;;200.27;53.80;;;;;;;;;;4835402;29;20487;-78
2023/04/23 02:16:40;;;;;;;169.05;54.50;;;;;;;;;;4823385;29;20075;-75
2023/04/23 02:19:06;;;;;;;118.35;54.90;;;;;;;;;;4834360;29;20113;-75
2023/04/23 02:21:32;;;;;;;142.43;56.03;;;;;;;;;;4834182;29;20465;-76
2023/04/23 02:23:58;;;;;;;139.55;57.03;;;;;;;;;;4835727;29;20030;-75
2023/04/23 02:26:24;;;;;;;129.27;58.35;;;;;;;;;;4837655;29;20086;-75
2023/04/23 02:28:50;;;;;;;151.82;60.63;;;;;;;;;;4836504;29;20127;-75
2023/04/23 02:31:17;;;;;;;137.10;58.95;;;;;;;;;;4835674;29;20034;-75
2023/04/23 02:33:45;;;;;;;139.23;60.13;;;;;;;;;;4832762;29;20454;-75
2023/04/23 02:36:11;;;;;;;129.35;60.20;;;;;;;;;;4838398;29;20030;-75
2023/04/23 02:38:41;;;;;;;134.23;60.55;;;;;;;;;;4835941;29;20038;-75
2023/04/23 02:41:07;;;;;;;124.75;61.53;;;;;;;;;;4834828;29;20450;-75
2023/04/23 02:43:33;;;;;;;123.20;63.00;;;;;;;;;;4815465;29;20080;-75
2023/04/23 02:45:59;;;;;;;123.70;60.13;;;;;;;;;;4831280;29;20391;-75
2023/04/23 02:48:26;;;;;;;120.13;57.53;;;;;;;;;;4821259;29;20088;-75
2023/04/23 02:50:52;;;;;;;134.38;62.28;;;;;;;;;;4831675;29;20574;-75
2023/04/23 02:53:18;;;;;;;126.80;60.25;;;;;;;;;;4831872;29;20049;-75
2023/04/23 02:55:44;;;;;;;138.38;64.38;;;;;;;;;;4835276;29;20076;-76
2023/04/23 02:58:11;;;;;;;136.70;63.35;;;;;;;;;;4836475;29;20479;-75
2023/04/23 03:00:37;;;;;;;141.65;66.68;;;;;;;;;;4834596;29;20129;-76
2023/04/23 03:03:03;;;;;;;128.50;62.40;;;;;;;;;;4827500;29;20038;-75
2023/04/23 03:05:29;;;;;;;146.88;62.40;;;;;;;;;;4833958;29;20480;-75
2023/04/23 03:07:55;;;;;;;132.77;63.90;;;;;;;;;;4824022;29;20034;-75
2023/04/23 03:10:21;;;;;;;137.40;66.45;;;;;;;;;;4834038;29;20038;-75
2023/04/23 03:12:47;;;;;;;132.95;65.47;;;;;;;;;;4833830;29;20069;-75
2023/04/23 03:15:13;;;;;;;136.77;64.75;;;;;;;;;;4820345;29;20026;-75
2023/04/23 03:17:39;;;;;;;130.88;64.32;;;;;;;;;;4836238;29;20041;-75
2023/04/23 03:20:07;;;;;;;152.85;66.47;;;;;;;;;;4835271;29;20029;-75
2023/04/23 03:22:33;;;;;;;143.90;65.70;;;;;;;;;;4833975;29;20037;-75
2023/04/23 03:24:59;;;;;;;145.40;66.15;;;;;;;;;;4838573;29;20041;-75
2023/04/23 03:27:25;;;;;;;138.90;66.07;;;;;;;;;;4835582;29;20391;-75
2023/04/23 03:29:51;;;;;;;150.20;67.63;;;;;;;;;;4835211;29;20038;-75
2023/04/23 03:32:17;;;;;;;153.32;69.03;;;;;;;;;;4834814;29;20427;-75
2023/04/23 03:34:43;;;;;;;137.10;66.18;;;;;;;;;;4834669;29;20030;-75
2023/04/23 03:37:09;;;;;;;153.77;69.70;;;;;;;;;;4832635;29;20105;-75
2023/04/23 03:39:35;;;;;;;136.52;66.43;;;;;;;;;;4832300;29;20021;-75
2023/04/23 03:42:01;;;;;;;140.70;68.80;;;;;;;;;;4835367;29;20494;-75
2023/04/23 03:44:27;;;;;;;146.20;68.38;;;;;;;;;;4834879;29;20034;-75
2023/04/23 03:46:53;;;;;;;153.00;68.18;;;;;;;;;;4836421;29;20065;-75
2023/04/23 03:49:20;;;;;;;153.43;66.93;;;;;;;;;;4832683;29;20089;-75
2023/04/23 03:51:46;;;;;;;156.38;68.72;;;;;;;;;;4818803;29;20034;-75
2023/04/23 03:54:12;;;;;;;137.65;66.43;;;;;;;;;;4817556;29;20560;-75
2023/04/23 03:56:39;;;;;;;125.28;62.85;;;;;;;;;;4835426;29;20120;-75
2023/04/23 03:59:05;;;;;;;144.63;66.35;;;;;;;;;;4836298;29;20174;-75
2023/04/23 04:01:31;;;;;;;145.90;68.57;;;;;;;;;;4832569;29;20045;-75
2023/04/23 04:03:57;;;;;;;143.35;66.63;;;;;;;;;;4834967;29;20045;-75
2023/04/23 04:06:23;;;;;;;134.02;68.88;;;;;;;;;;4832943;29;20049;-75
2023/04/23 04:08:49;;;;;;;132.95;63.58;;;;;;;;;;4820681;29;20041;-75
2023/04/23 04:11:16;;;;;;;141.13;63.30;;;;;;;;;;4833732;29;20037;-76
2023/04/23 04:13:42;;;;;;;129.32;62.25;;;;;;;;;;4833273;29;20034;-76
2023/04/23 04:16:08;;;;;;;132.85;64.13;;;;;;;;;;4832441;29;20037;-76
2023/04/23 04:18:34;;;;;;;123.90;62.83;;;;;;;;;;4830897;29;20030;-76
2023/04/23 04:21:00;;;;;;;123.45;63.80;;;;;;;;;;4816342;29;20045;-76
2023/04/23 04:23:27;;;;;;;136.23;63.97;;;;;;;;;;4832738;29;20174;-76
2023/04/23 04:25:55;;;;;;;123.93;61.35;;;;;;;;;;4834097;29;20046;-75
2023/04/23 04:28:21;;;;;;;126.97;62.85;;;;;;;;;;4828137;29;20129;-75
2023/04/23 04:30:49;;;;;;;125.57;61.42;;;;;;;;;;4819710;29;20038;-75
2023/04/23 04:33:15;;;;;;;126.20;62.65;;;;;;;;;;4831016;29;20040;-76
2023/04/23 04:35:41;;;;;;;126.95;63.40;;;;;;;;;;4837541;29;20041;-75
2023/04/23 04:38:07;;;;;;;124.38;60.33;;;;;;;;;;4832724;29;20416;-75
2023/04/23 04:40:34;;;;;;;127.95;60.95;;;;;;;;;;4833965;29;20030;-76
2023/04/23 04:43:00;;;;;;;136.80;63.90;;;;;;;;;;4835665;29;20050;-76
2023/04/23 04:45:26;;;;;;;137.75;63.53;;;;;;;;;;4832692;29;20049;-76
2023/04/23 04:47:52;;;;;;;138.30;65.68;;;;;;;;;;4834413;29;20045;-76
2023/04/23 04:50:18;;;;;;;126.25;61.35;;;;;;;;;;4833655;29;20050;-75
2023/04/23 04:52:44;;;;;;;125.65;63.63;;;;;;;;;;4833644;29;20042;-75
2023/04/23 04:55:11;;;;;;;114.07;57.13;;;;;;;;;;4831075;29;20050;-75
2023/04/23 04:57:37;;;;;;;117.18;61.45;;;;;;;;;;4832105;29;20211;-76
2023/04/23 05:00:19;;;;;;;114.50;58.28;;;;;;;;;;4833390;29;20531;-76
2023/04/23 05:02:47;;;;;;;115.32;59.80;;;;;;;;;;4835818;29;20555;-75
2023/04/23 05:05:14;;;;;;;112.65;59.08;;;;;;;;;;4829077;29;20098;-76
2023/04/23 05:07:40;;;;;;;108.20;58.85;;;;;;;;;;4833092;29;20647;-76
2023/04/23 05:10:06;;;;;;;101.30;54.72;;;;;;;;;;4830937;29;20025;-76
2023/04/23 05:12:32;;;;;;;106.57;53.35;;;;;;;;;;4810631;29;20045;-74
2023/04/23 05:14:59;;;;;;;96.90;54.65;;;;;;;;;;4835524;29;20069;-82
2023/04/23 05:17:25;;;;;;;100.60;53.75;;;;;;;;;;4840792;29;20026;-81
2023/04/23 05:19:51;;;;;;;89.07;51.97;;;;;;;;;;4895812;24;20087;-82
2023/04/23 05:22:17;;;;;;;91.45;52.30;;;;;;;;;;4838214;29;20045;-84
2023/04/23 05:24:45;;;;;;;133.30;75.60;;;;;;;;;;4828462;29;20065;-77
2023/04/23 05:27:11;;;;;;;104.70;58.08;;;;;;;;;;4826955;29;20086;-76
2023/04/23 05:29:37;;;;;;;100.03;54.85;;;;;;;;;;4825895;29;20038;-79
2023/04/23 05:32:03;;;;;;;85.43;49.95;;;;;;;;;;4832391;29;20113;-79
2023/04/23 05:34:29;;;;;;;87.57;50.42;;;;;;;;;;4816908;29;20086;-82
2023/04/23 05:36:55;;;;;;;90.65;50.67;;;;;;;;;;4832798;29;20046;-81
2023/04/23 05:39:21;;;;;;;74.22;46.50;;;;;;;;;;4826086;29;20031;-81
2023/04/23 05:41:51;;;;;;;75.47;47.28;;;;;;;;;;4825075;29;20436;-77
2023/04/23 05:44:17;;;;;;;78.63;47.33;;;;;;;;;;4828415;29;20138;-78
2023/04/23 05:46:43;;;;;;;80.60;48.25;;;;;;;;;;4828150;29;20078;-80
2023/04/23 05:49:09;;;;;;;75.53;47.42;;;;;;;;;;4830796;29;20079;-78
2023/04/23 05:51:35;;;;;;;77.53;47.10;;;;;;;;;;4823692;29;20046;-82
2023/04/23 05:54:01;;;;;;;71.32;43.67;;;;;;;;;;4822777;29;20116;-80
2023/04/23 05:56:27;;;;;;;71.43;45.00;;;;;;;;;;4822090;29;20042;-81
2023/04/23 05:58:53;;;;;;;75.25;46.13;;;;;;;;;;4825742;29;20460;-82
2023/04/23 06:01:20;;;;;;;71.05;45.50;;;;;;;;;;4825846;29;20030;-80
2023/04/23 06:03:46;;;;;;;73.90;46.17;;;;;;;;;;4824398;29;20083;-79
2023/04/23 06:06:12;;;;;;;68.47;44.90;;;;;;;;;;4839185;29;20372;-80
2023/04/23 06:08:38;;;;;;;74.38;44.17;;;;;;;;;;4824699;29;20486;-77
2023/04/23 06:11:04;;;;;;;80.20;46.85;;;;;;;;;;4826238;29;20391;-81
2023/04/23 06:13:30;;;;;;;69.65;45.17;;;;;;;;;;4823574;29;20046;-80
2023/04/23 06:15:57;;;;;;;79.22;47.53;;;;;;;;;;4826255;29;20050;-80
2023/04/23 06:18:23;;;;;;;76.78;47.17;;;;;;;;;;4825429;29;20104;-79
2023/04/23 06:20:50;;;;;;;73.25;46.17;;;;;;;;;;4825333;29;20050;-82
2023/04/23 06:23:16;;;;;;;73.07;47.38;;;;;;;;;;4848070;29;20124;-78
2023/04/23 06:25:45;;;;;;;66.15;44.38;;;;;;;;;;4845297;29;20046;-82
2023/04/23 06:28:11;;;;;;;71.50;46.10;;;;;;;;;;4847943;29;20067;-80
2023/04/23 06:30:37;;;;;;;73.53;46.45;;;;;;;;;;4851886;29;20112;-78
2023/04/23 06:33:03;;;;;;;71.90;46.45;;;;;;;;;;4917303;24;20089;-84
2023/04/23 06:35:30;;;;;;;68.32;44.55;;;;;;;;;;4841903;29;20029;-82
2023/04/23 06:37:56;;;;;;;67.15;44.00;;;;;;;;;;4951957;24;20095;-85
2023/04/23 06:40:22;;;;;;;60.30;42.10;;;;;;;;;;4942843;24;20065;-85
2023/04/23 06:42:48;;;;;;;69.13;44.00;;;;;;;;;;4847884;29;20041;-83
2023/04/23 06:45:15;;;;;;;61.58;42.63;;;;;;;;;;4855849;29;20042;-79
2023/04/23 06:47:42;;;;;;;65.35;43.70;;;;;;;;;;4860436;29;20486;-81
2023/04/23 06:50:08;;;;;;;65.35;46.13;;;;;;;;;;4859290;29;20053;-77
2023/04/23 06:52:35;;;;;;;59.78;41.60;;;;;;;;;;4851140;29;20109;-79
2023/04/23 06:55:01;;;;;;;59.88;40.47;;;;;;;;;;4851609;29;20026;-79
2023/04/23 06:57:27;;;;;;;59.08;40.53;;;;;;;;;;4853768;29;20040;-78
2023/04/23 06:59:53;;;;;;;59.10;41.25;;;;;;;;;;4839459;29;20439;-78
2023/04/23 07:02:19;;;;;;;55.00;40.22;;;;;;;;;;4854450;29;20471;-78
2023/04/23 07:04:46;;;;;;;58.88;41.13;;;;;;;;;;4852189;29;20041;-83
2023/04/23 07:07:12;;;;;;;125.18;84.90;;;;;;;;;;4911192;23;20491;-88
2023/04/23 07:09:38;;;;;;;102.28;67.70;;;;;;;;;;4861705;29;20046;-88
2023/04/23 07:12:04;;;;;;;53.22;38.00;;;;;;;;;;4849375;29;20028;-81
2023/04/23 07:14:30;;;;;;;51.05;36.55;;;;;;;;;;4856259;29;20052;-80
2023/04/23 07:16:56;;;;;;;56.00;38.53;;;;;;;;;;4841690;29;20038;-81
2023/04/23 07:19:22;;;;;;;48.35;35.00;;;;;;;;;;4838015;29;20079;-82
2023/04/23 07:21:48;;;;;;;48.60;34.97;;;;;;;;;;4840146;29;20053;-80
2023/04/23 07:24:15;;;;;;;47.75;35.83;;;;;;;;;;4845908;29;20038;-79
2023/04/23 07:26:41;;;;;;;45.22;34.22;;;;;;;;;;4850983;29;20038;-83
2023/04/23 07:29:09;;;;;;;44.95;32.58;;;;;;;;;;4853532;29;20087;-80
2023/04/23 07:31:36;;;;;;;45.13;33.38;;;;;;;;;;4849902;29;20021;-84
2023/04/23 07:34:02;;;;;;;42.58;31.40;;;;;;;;;;4844773;29;20071;-83
2023/04/23 07:36:30;;;;;;;41.72;31.73;;;;;;;;;;4845723;29;20788;-84
2023/04/23 07:38:56;;;;;;;36.33;28.85;;;;;;;;;;4839855;29;20476;-82
2023/04/23 07:41:22;;;;;;;36.33;28.42;;;;;;;;;;4844381;29;20064;-84
2023/04/23 07:43:48;;;;;;;35.38;29.00;;;;;;;;;;4847844;29;20144;-84
2023/04/23 07:46:16;;;;;;;36.85;28.02;;;;;;;;;;4848207;29;20472;-79
2023/04/23 07:48:42;;;;;;;35.53;27.00;;;;;;;;;;4861688;29;20053;-82
2023/04/23 07:51:08;;;;;;;35.35;27.42;;;;;;;;;;4855564;29;20030;-80
2023/04/23 07:53:34;;;;;;;35.15;27.80;;;;;;;;;;4854464;29;20105;-82
2023/04/23 07:56:00;;;;;;;35.35;26.90;;;;;;;;;;4847384;29;20045;-84
2023/04/23 07:58:26;;;;;;;34.10;26.02;;;;;;;;;;4845239;29;20038;-85
2023/04/23 08:00:52;;;;;;;35.15;26.38;;;;;;;;;;4863993;29;20038;-84
2023/04/23 08:03:18;;;;;;;31.65;25.50;;;;;;;;;;4859443;29;20029;-81
2023/04/23 08:05:44;;;;;;;30.05;24.08;;;;;;;;;;4854497;29;20030;-83
2023/04/23 08:08:11;;;;;;;30.20;24.75;;;;;;;;;;4852248;29;20057;-82
2023/04/23 08:10:37;;;;;;;27.88;22.50;;;;;;;;;;4842024;29;20071;-80
2023/04/23 08:13:03;;;;;;;35.92;27.77;;;;;;;;;;4846671;29;20491;-75
2023/04/23 08:15:29;;;;;;;45.50;34.38;;;;;;;;;;4846626;29;20506;-74
2023/04/23 08:17:56;;;;;;;25.90;21.15;;;;;;;;;;4859421;29;20068;-75
2023/04/23 08:20:22;;;;;;;27.30;19.98;;;;;;;;;;4841459;29;20022;-80
2023/04/23 08:22:52;;;;;;;27.45;21.55;;;;;;;;;;4837794;29;20376;-82
2023/04/23 08:25:19;;;;;;;25.52;20.23;;;;;;;;;;4845087;29;20021;-80
2023/04/23 08:27:45;;;;;;;25.08;19.60;;;;;;;;;;4851101;29;20215;-78
2023/04/23 08:30:11;;;;;;;25.45;21.27;;;;;;;;;;4850055;29;20058;-81
2023/04/23 08:32:41;;;;;;;28.30;21.70;;;;;;;;;;4850400;29;20040;-85
2023/04/23 08:35:07;;;;;;;23.08;19.08;;;;;;;;;;4838021;29;20042;-76
2023/04/23 08:37:33;;;;;;;23.27;19.05;;;;;;;;;;4838260;29;20029;-82
2023/04/23 08:40:00;;;;;;;19.42;15.13;;;;;;;;;;4839795;29;20411;-81
2023/04/23 08:42:26;;;;;;;19.33;16.45;;;;;;;;;;4842060;29;20044;-83
2023/04/23 08:44:53;;;;;;;17.95;15.32;;;;;;;;;;4843134;29;21390;-74
2023/04/23 08:47:23;;;;;;;21.77;17.13;;;;;;;;;;4839350;29;20920;-77
2023/04/23 08:49:53;;;;;;;19.98;16.60;;;;;;;;;;4840353;29;20040;-75
2023/04/23 08:52:22;;;;;;;21.58;16.33;;;;;;;;;;4838700;29;20049;-75
2023/04/23 08:54:50;;;;;;;20.42;14.40;;;;;;;;;;4841483;29;20045;-81
2023/04/23 08:57:17;;;;;;;18.60;14.07;;;;;;;;;;4846815;29;20048;-80
2023/04/23 08:59:43;;;;;;;15.93;12.80;;;;;;;;;;4843486;29;20050;-81
2023/04/23 09:02:09;;;;;;;17.63;14.63;;;;;;;;;;4845102;29;20037;-80
2023/04/23 09:04:36;;;;;;;17.75;13.48;;;;;;;;;;4843239;29;20044;-84
2023/04/23 09:07:03;;;;;;;18.52;11.63;;;;;;;;;;4851610;29;20026;-78
2023/04/23 09:09:29;;;;;;;18.30;12.52;;;;;;;;;;4839042;29;20568;-76
2023/04/23 09:11:56;;;;;;;19.48;12.20;;;;;;;;;;4844804;29;20394;-77
2023/04/23 09:14:26;;;;;;;15.32;12.75;;;;;;;;;;4842207;29;20570;-77
2023/04/23 09:16:52;;;;;;;17.92;11.48;;;;;;;;;;4836595;29;20428;-81
2023/04/23 09:19:18;;;;;;;14.00;10.15;;;;;;;;;;4831178;29;20548;-81
2023/04/23 09:21:45;;;;;;;17.10;9.30;;;;;;;;;;4856892;29;20025;-86
2023/04/23 09:24:13;;;;;;;11.95;8.93;;;;;;;;;;4854438;29;20033;-74
2023/04/23 09:26:47;;;;;;;14.48;8.65;;;;;;;;;;4843470;29;20033;-76
2023/04/23 09:29:16;;;;;;;15.38;9.00;;;;;;;;;;4867483;29;20479;-76
2023/04/23 09:31:42;;;;;;;13.38;8.43;;;;;;;;;;4850009;29;20030;-83
2023/04/23 09:34:08;;;;;;;11.38;7.53;;;;;;;;;;4834958;29;20156;-81
2023/04/23 09:36:36;;;;;;;15.57;9.82;;;;;;;;;;4860901;29;20038;-85
2023/04/23 09:39:11;;;;;;;16.33;8.35;;;;;;;;;;4861875;29;20042;-81
2023/04/23 09:41:37;;;;;;;13.32;7.72;;;;;;;;;;4866315;29;20062;-86
2023/04/23 09:44:03;;;;;;;31.40;19.60;;;;;;;;;;4922576;23;20332;-91
2023/04/23 09:46:36;;;;;;;26.83;17.23;;;;;;;;;;4871262;29;20068;-86
2023/04/23 09:49:06;;;;;;;11.20;6.88;;;;;;;;;;4869825;29;20038;-83
2023/04/23 09:51:32;;;;;;;11.20;6.75;;;;;;;;;;4839733;29;20056;-78
2023/04/23 09:54:01;;;;;;;10.25;5.88;;;;;;;;;;4855968;29;20445;-77
2023/04/23 09:56:27;;;;;;;9.98;7.20;;;;;;;;;;4855542;29;20077;-83
2023/04/23 09:58:53;;;;;;;11.85;6.95;;;;;;;;;;4849398;29;20652;-81
2023/04/23 10:01:26;;;;;;;12.02;6.53;;;;;;;;;;4845164;29;20037;-78
2023/04/23 10:03:53;;;;;;;13.27;6.65;;;;;;;;;;4853495;29;20574;-80
2023/04/23 10:06:19;;;;;;;10.65;7.07;;;;;;;;;;4839108;29;20075;-80
2023/04/23 10:08:45;;;;;;;12.07;6.90;;;;;;;;;;4855323;29;20375;-82
2023/04/23 10:11:11;;;;;;;13.95;6.95;;;;;;;;;;4847425;29;20113;-82
2023/04/23 10:13:38;;;;;;;9.88;6.43;;;;;;;;;;4854037;29;20109;-84
2023/04/23 10:16:05;;;;;;;11.43;7.03;;;;;;;;;;4861125;29;20042;-80
2023/04/23 10:18:32;;;;;;;15.00;4.90;;;19.90;99.90;;;;;;4863731;29;20058;-84
2023/04/23 10:20:58;;;;;;;15.23;6.10;;;;;;;;;;4875566;29;20064;-83
2023/04/23 10:23:24;;;;;;;9.43;4.45;;;;;;;;;;4874438;29;20049;-83
2023/04/23 10:25:54;;;;;;;14.70;5.68;;;;;;;;;;4851319;29;20094;-82
2023/04/23 10:28:27;;;;;;;9.52;4.60;;;;;;;;;;4855867;29;20089;-81
2023/04/23 10:30:54;;;;;;;6.85;4.28;;;;;;;;;;4858013;29;20034;-85
2023/04/23 10:33:21;;;;;;;9.48;4.88;;;;;;;;;;4859220;29;20483;-75
2023/04/23 10:35:48;;;;;;;9.38;5.38;;;;;;;;;;4844918;29;20026;-78
2023/04/23 10:38:15;;;;;;;7.13;4.13;;;;;;;;;;4850791;29;20033;-79
2023/04/23 10:40:44;;;;;;;10.93;4.47;;;;;;;;;;4859489;29;20424;-81
2023/04/23 10:43:10;;;;;;;11.73;4.25;;;;;;;;;;4836635;29;20060;-83
2023/04/23 10:45:36;;;;;;;10.63;4.18;;;;;;;;;;4829760;29;20064;-81
2023/04/23 10:48:03;;;;;;;8.57;3.75;;;;;;;;;;4819177;29;20035;-81
2023/04/23 10:50:34;;;;;;;13.50;4.15;;;;;;;;;;4812023;29;20066;-80
2023/04/23 10:53:01;;;;;;;8.75;4.25;;;;;;;;;;4823446;29;20097;-78
2023/04/23 10:55:28;;;;;;;10.60;5.18;;;;;;;;;;4821896;29;20043;-79
2023/04/23 10:57:58;;;;;;;8.63;3.88;;;;;;;;;;4822250;29;20091;-83
2023/04/23 11:00:25;;;;;;;8.02;3.78;;;;;;;;;;4813823;29;20480;-83
2023/04/23 11:02:54;;;;;;;10.32;2.75;;;;;;;;;;4827016;29;20045;-82
2023/04/23 11:05:22;;;;;;;9.90;3.30;;;;;;;;;;4819100;29;20053;-80
2023/04/23 11:08:07;;;;;;;8.30;2.70;;;;;;;;;;4814665;29;20035;-81
2023/04/23 11:10:33;;;;;;;7.97;2.70;;;;;;;;;;4816979;29;20039;-81
2023/04/23 11:13:18;;;;;;;12.18;4.43;;;;;;;;;;4823417;29;20102;-80
2023/04/23 11:15:44;;;;;;;6.55;2.88;;;;;;;;;;4818660;29;20426;-81
2023/04/23 11:18:11;;;;;;;8.52;2.88;;;;;;;;;;4823855;29;20484;-80
2023/04/23 11:20:37;;;;;;;6.93;2.42;;;;;;;;;;4813628;29;20043;-81
2023/04/23 11:23:06;;;;;;;7.15;2.60;;;;;;;;;;4826775;29;20111;-81
2023/04/23 11:25:32;;;;;;;6.50;2.35;;;;;;;;;;4841210;29;20034;-83
2023/04/23 11:27:58;;;;;;;7.55;2.22;;;;;;;;;;4843732;24;20062;-83
2023/04/23 11:30:29;;;;;;;8.40;2.20;;;;;;;;;;4831020;29;20077;-85
2023/04/23 11:32:56;;;;;;;7.18;1.95;;;;;;;;;;4830184;29;20045;-83
2023/04/23 11:35:27;;;;;;;7.35;2.00;;;;;;;;;;4838620;29;20072;-82
2023/04/23 11:37:56;;;;;;;6.28;1.70;;;;;;;;;;4836791;29;20043;-82
2023/04/23 11:40:23;;;;;;;7.65;1.77;;;;;;;;;;4833170;29;20038;-81
2023/04/23 11:42:50;;;;;;;6.90;1.98;;;;;;;;;;4834016;29;20042;-80
2023/04/23 11:45:24;;;;;;;8.60;2.38;;;;;;;;;;4823855;29;20022;-83
2023/04/23 11:47:54;;;;;;;6.88;1.75;;;;;;;;;;4835276;29;20030;-84
2023/04/23 11:50:21;;;;;;;10.35;2.85;;;;;;;;;;4887403;24;20062;-80
2023/04/23 11:55:23;;;;;;;5.95;1.48;;;;;;;;;;4922219;23;20149;-78
2023/04/23 11:57:50;;;;;;;13.55;4.75;;;;;;;;;;4850447;29;20076;-79
2023/04/23 12:00:16;;;;;;;14.05;7.80;;;;;;;;;;4844087;29;20037;-80
2023/04/23 12:03:08;;;;;;;9.27;2.78;;;;;;;;;;4857413;29;20037;-79
2023/04/23 12:05:36;;;;;;;7.05;1.85;;;;;;;;;;4851169;29;20052;-79
2023/04/23 12:08:09;;;;;;;8.70;1.58;;;;;;;;;;4854656;29;20116;-76
2023/04/23 12:10:51;;;;;;;7.75;1.95;;;;;;;;;;4857853;29;20029;-74
2023/04/23 12:13:17;;;;;;;4.75;1.50;;;;;;;;;;4853147;29;20356;-75
2023/04/23 12:15:50;;;;;;;8.98;2.00;;;;;;;;;;4847106;29;20367;-78
2023/04/23 12:18:18;;;;;;;5.80;1.52;;;;;;;;;;4858354;29;20093;-80
2023/04/23 12:20:45;;;;;;;8.65;2.30;;;;;;;;;;4827207;29;20030;-79
2023/04/23 12:23:11;;;;;;;8.38;2.00;;;;;;;;;;4846836;29;20033;-77
2023/04/23 12:25:41;;;;;;;8.30;1.88;;;;;;;;;;4856052;29;20499;-76
2023/04/23 12:28:07;;;;;;;11.45;1.80;;;;;;;;;;4860022;29;20375;-77
2023/04/23 12:30:34;;;;;;;7.10;1.63;;;;;;;;;;4853302;29;20036;-77
2023/04/23 12:33:01;;;;;;;6.95;1.50;;;;;;;;;;4836412;29;20398;-80
2023/04/23 12:35:39;;;;;;;7.65;1.95;;;;;;;;;;4811308;29;20045;-80
2023/04/23 12:38:05;;;;;;;10.18;1.73;;;;;;;;;;4852912;29;20450;-79
2023/04/23 12:40:34;;;;;;;8.32;1.90;;;;;;;;;;4842933;29;20045;-80
2023/04/23 12:43:01;;;;;;;5.80;1.55;;;;;;;;;;4837699;29;20033;-80
2023/04/23 12:45:36;;;;;;;6.30;2.58;;;;;;;;;;4849571;29;20363;-81
2023/04/23 12:48:02;;;;;;;6.70;2.30;;;;;;;;;;4864898;29;20120;-84
2023/04/23 12:50:30;;;;;;;8.05;1.40;;;;;;;;;;4829247;29;20030;-78
2023/04/23 12:52:56;;;;;;;5.90;1.55;;;;;;;;;;4852023;29;20141;-77
2023/04/23 12:55:22;;;;;;;6.03;1.17;;;;;;;;;;4850886;29;20128;-77
2023/04/23 12:57:48;;;;;;;5.75;1.55;;;;;;;;;;4857723;29;20026;-78
2023/04/23 13:00:15;;;;;;;7.22;1.85;;;;;;;;;;4853085;29;20410;-78
2023/04/23 13:02:41;;;;;;;7.93;1.60;;;;;;;;;;4858104;29;20045;-78
2023/04/23 13:05:10;;;;;;;5.85;1.48;;;;;;;;;;4837890;29;20053;-78
2023/04/23 13:07:36;;;;;;;5.45;1.35;;;;;;;;;;4840609;29;20033;-79
2023/04/23 13:10:06;;;;;;;7.03;1.73;;;;;;;;;;4845768;29;20495;-78
2023/04/23 13:12:33;;;;;;;7.03;1.40;;;;;;;;;;4851390;29;20045;-79
2023/04/23 13:14:59;;;;;;;6.60;1.33;;;;;;;;;;4843060;29;20041;-77
2023/04/23 13:17:25;;;;;;;8.23;2.00;;;;;;;;;;4845844;29;20065;-77
2023/04/23 13:19:54;;;;;;;4.35;1.55;;;;;;;;;;4852289;29;20052;-80
2023/04/23 13:22:21;;;;;;;4.40;1.35;;;;;;;;;;4856780;29;20494;-78
2023/04/23 13:24:47;;;;;;;8.25;2.75;;;;;;;;;;4843141;29;20042;-81
2023/04/23 13:27:13;;;;;;;8.75;1.90;;;;;;;;;;4846217;29;20030;-83
2023/04/23 13:29:40;;;;;;;4.85;1.70;;;;;;;;;;4850129;29;20086;-82
2023/04/23 13:32:06;;;;;;;8.55;3.25;;;;;;;;;;4836503;29;20121;-78
2023/04/23 13:34:33;;;;;;;5.78;1.35;;;;;;;;;;4842937;29;20447;-81
2023/04/23 13:37:04;;;;;;;14.20;7.20;;;;;;;;;;4854129;29;20040;-78
2023/04/23 13:39:30;;;;;;;4.22;1.45;;;;;;;;;;4853745;29;20052;-76
2023/04/23 13:41:56;;;;;;;6.80;2.05;;;;;;;;;;4856000;29;20042;-77
2023/04/23 13:44:22;;;;;;;6.05;1.23;;;;;;;;;;4855560;29;20073;-77
2023/04/23 13:46:49;;;;;;;9.90;1.83;;;;;;;;;;4857661;29;20060;-78
2023/04/23 13:49:16;;;;;;;5.22;1.60;;;;;;;;;;4835596;29;20372;-77
2023/04/23 13:51:42;;;;;;;5.10;1.38;;;;;;;;;;4858374;29;20033;-77
2023/04/23 13:54:08;;;;;;;5.25;1.73;;;;;;;;;;4847178;29;20046;-82
2023/04/23 13:56:35;;;;;;;5.47;2.25;;;;;;;;;;4848047;29;20399;-83
2023/04/23 13:59:02;;;;;;;9.50;4.82;;;;;;;;;;4851485;29;20130;-80
2023/04/23 14:01:29;;;;;;;36.72;23.67;;;;;;;;;;4850482;29;20034;-80
2023/04/23 14:03:56;;;;;;;8.50;2.47;;;;;;;;;;4854882;29;20322;-79
2023/04/23 14:06:22;;;;;;;8.98;1.85;;;;;;;;;;4853790;29;20045;-79
2023/04/23 14:08:48;;;;;;;6.65;1.63;;;;;;;;;;4852612;29;20041;-77
2023/04/23 14:11:14;;;;;;;6.65;1.63;;;;;;;;;;4847049;29;20037;-77
2023/04/23 14:13:40;;;;;;;3.75;1.20;;;;;;;;;;4854317;29;20046;-78
2023/04/23 14:16:06;;;;;;;6.70;2.38;;;;;;;;;;4857563;29;20454;-78
2023/04/23 14:18:33;;;;;;;3.90;1.45;;;;;;;;;;4860811;29;20042;-77
2023/04/23 14:20:59;;;;;;;6.25;1.40;;;;;;;;;;4857936;29;20040;-78
2023/04/23 14:23:25;;;;;;;8.20;1.60;;;;;;;;;;4858658;29;20041;-77